createdAt,value
2023-10-20T00:00:03.395Z,966.71
2023-10-20T00:00:13.641Z,966.71
2023-10-20T00:00:23.889Z,966.70
2023-10-20T00:00:34.149Z,966.69
2023-10-20T00:00:44.389Z,966.69
2023-10-20T00:00:54.672Z,966.69
2023-10-20T00:01:04.937Z,966.68
2023-10-20T00:01:15.162Z,966.67
2023-10-20T00:01:25.436Z,966.67
2023-10-20T00:01:35.705Z,966.66
2023-10-20T00:01:45.917Z,966.66
2023-10-20T00:01:56.310Z,966.65
2023-10-20T00:02:06.547Z,966.65
2023-10-20T00:02:16.858Z,966.63
2023-10-20T00:02:27.184Z,966.61
2023-10-20T00:02:37.548Z,966.60
2023-10-20T00:02:47.869Z,966.60
2023-10-20T00:02:58.170Z,966.58
2023-10-20T00:03:08.520Z,966.57
2023-10-20T00:03:18.883Z,966.57
2023-10-20T00:03:29.122Z,966.56
2023-10-20T00:03:39.420Z,966.54
2023-10-20T00:03:49.786Z,966.54
2023-10-20T00:04:00.100Z,966.53
2023-10-20T00:04:10.403Z,966.52
2023-10-20T00:04:20.612Z,966.51
2023-10-20T00:04:31.336Z,966.51
2023-10-20T00:04:41.244Z,966.50
2023-10-20T00:04:51.494Z,966.50
2023-10-20T00:05:01.774Z,966.50
2023-10-20T00:05:12.042Z,966.50
2023-10-20T00:05:22.311Z,966.50
2023-10-20T00:05:32.559Z,966.50
2023-10-20T00:05:42.799Z,966.49
2023-10-20T00:05:53.034Z,966.49
2023-10-20T00:06:03.283Z,966.50
2023-10-20T00:06:13.530Z,966.50
2023-10-20T00:06:23.781Z,966.50
2023-10-20T00:06:34.021Z,966.50
2023-10-20T00:06:44.269Z,966.50
2023-10-20T00:06:54.518Z,966.51
2023-10-20T00:07:04.766Z,966.51
2023-10-20T00:07:15.009Z,966.52
2023-10-20T00:07:25.263Z,966.53
2023-10-20T00:07:35.502Z,966.53
2023-10-20T00:07:45.746Z,966.54
2023-10-20T00:07:56.024Z,966.55
2023-10-20T00:08:06.329Z,966.55
2023-10-20T00:08:16.644Z,966.56
2023-10-20T00:08:26.964Z,966.57
2023-10-20T00:08:37.231Z,966.58
2023-10-20T00:08:47.458Z,966.58
2023-10-20T00:08:57.701Z,966.59
2023-10-20T00:09:07.948Z,966.59
2023-10-20T00:09:18.199Z,966.60
2023-10-20T00:09:28.440Z,966.60
2023-10-20T00:09:38.688Z,966.61
2023-10-20T00:09:48.937Z,966.61
2023-10-20T00:09:59.180Z,966.62
2023-10-20T00:10:09.429Z,966.62
2023-10-20T00:10:19.679Z,966.63
2023-10-20T00:10:29.932Z,966.63
2023-10-20T00:10:40.171Z,966.63
2023-10-20T00:10:50.418Z,966.64
2023-10-20T00:11:00.685Z,966.65
2023-10-20T00:11:10.944Z,966.66
2023-10-20T00:11:21.223Z,966.66
2023-10-20T00:11:31.506Z,966.66
2023-10-20T00:11:41.734Z,966.66
2023-10-20T00:11:51.986Z,966.66
2023-10-20T00:12:02.227Z,966.65
2023-10-20T00:12:12.472Z,966.65
2023-10-20T00:12:22.729Z,966.65
2023-10-20T00:12:32.971Z,966.64
2023-10-20T00:12:43.235Z,966.64
2023-10-20T00:12:53.482Z,966.64
2023-10-20T00:13:03.750Z,966.63
2023-10-20T00:13:13.999Z,966.62
2023-10-20T00:13:24.243Z,966.61
2023-10-20T00:13:34.533Z,966.61
2023-10-20T00:13:44.745Z,966.60
2023-10-20T00:13:55.056Z,966.59
2023-10-20T00:14:05.321Z,966.59
2023-10-20T00:14:15.582Z,966.59
2023-10-20T00:14:25.942Z,966.57
2023-10-20T00:14:36.201Z,966.56
2023-10-20T00:14:46.471Z,966.55
2023-10-20T00:14:56.708Z,966.55
2023-10-20T00:15:06.956Z,966.55
2023-10-20T00:15:19.408Z,966.53
2023-10-20T00:15:27.561Z,966.54
2023-10-20T00:15:37.830Z,966.54
2023-10-20T00:15:48.109Z,966.55
2023-10-20T00:15:58.360Z,966.53
2023-10-20T00:16:08.623Z,966.53
2023-10-20T00:16:18.865Z,966.53
2023-10-20T00:16:29.117Z,966.53
2023-10-20T00:16:39.347Z,966.54
2023-10-20T00:16:49.595Z,966.53
2023-10-20T00:16:59.847Z,966.54
2023-10-20T00:17:10.107Z,966.53
2023-10-20T00:17:20.387Z,966.53
2023-10-20T00:17:30.672Z,966.53
2023-10-20T00:17:41.073Z,966.53
2023-10-20T00:17:51.439Z,966.52
2023-10-20T00:18:01.695Z,966.51
2023-10-20T00:18:12.008Z,966.51
2023-10-20T00:18:22.291Z,966.51
2023-10-20T00:18:32.506Z,966.52
2023-10-20T00:18:42.777Z,966.52
2023-10-20T00:18:52.999Z,966.51
2023-10-20T00:19:03.248Z,966.51
2023-10-20T00:19:13.514Z,966.51
2023-10-20T00:19:23.770Z,966.50
2023-10-20T00:19:33.988Z,966.49
2023-10-20T00:19:44.235Z,966.48
2023-10-20T00:19:54.496Z,966.48
2023-10-20T00:20:04.785Z,966.47
2023-10-20T00:20:15.053Z,966.46
2023-10-20T00:20:25.313Z,966.45
2023-10-20T00:20:35.591Z,966.45
2023-10-20T00:20:45.816Z,966.44
2023-10-20T00:20:56.055Z,966.43
2023-10-20T00:21:06.300Z,966.43
2023-10-20T00:21:16.546Z,966.42
2023-10-20T00:21:26.802Z,966.42
2023-10-20T00:21:37.052Z,966.41
2023-10-20T00:21:47.297Z,966.40
2023-10-20T00:21:57.539Z,966.40
2023-10-20T00:22:07.801Z,966.40
2023-10-20T00:22:18.057Z,966.40
2023-10-20T00:22:28.311Z,966.40
2023-10-20T00:22:38.567Z,966.40
2023-10-20T00:22:48.810Z,966.40
2023-10-20T00:22:59.091Z,966.39
2023-10-20T00:23:09.336Z,966.40
2023-10-20T00:23:19.608Z,966.40
2023-10-20T00:23:29.863Z,966.40
2023-10-20T00:23:40.140Z,966.40
2023-10-20T00:23:50.353Z,966.41
2023-10-20T00:24:00.614Z,966.42
2023-10-20T00:24:10.847Z,966.43
2023-10-20T00:24:21.100Z,966.43
2023-10-20T00:24:31.522Z,966.44
2023-10-20T00:24:41.662Z,966.45
2023-10-20T00:24:52.050Z,966.46
2023-10-20T00:25:02.305Z,966.47
2023-10-20T00:25:12.543Z,966.48
2023-10-20T00:25:22.794Z,966.49
2023-10-20T00:25:33.037Z,966.50
2023-10-20T00:25:43.293Z,966.50
2023-10-20T00:25:53.542Z,966.50
2023-10-20T00:26:03.825Z,966.51
2023-10-20T00:26:14.124Z,966.51
2023-10-20T00:26:24.382Z,966.51
2023-10-20T00:26:34.635Z,966.50
2023-10-20T00:26:44.873Z,966.49
2023-10-20T00:26:55.114Z,966.49
2023-10-20T00:27:05.380Z,966.49
2023-10-20T00:27:15.632Z,966.48
2023-10-20T00:27:25.878Z,966.48
2023-10-20T00:27:36.128Z,966.48
2023-10-20T00:27:46.386Z,966.47
2023-10-20T00:27:56.650Z,966.47
2023-10-20T00:28:06.898Z,966.46
2023-10-20T00:28:17.145Z,966.46
2023-10-20T00:28:27.392Z,966.46
2023-10-20T00:28:37.636Z,966.45
2023-10-20T00:28:47.883Z,966.45
2023-10-20T00:28:58.146Z,966.45
2023-10-20T00:29:08.406Z,966.45
2023-10-20T00:29:18.698Z,966.45
2023-10-20T00:29:29.007Z,966.44
2023-10-20T00:29:39.229Z,966.44
2023-10-20T00:29:49.496Z,966.45
2023-10-20T00:29:59.736Z,966.45
2023-10-20T00:30:09.982Z,966.45
2023-10-20T00:30:20.272Z,966.46
2023-10-20T00:30:30.476Z,966.45
2023-10-20T00:30:40.727Z,966.45
2023-10-20T00:30:50.975Z,966.44
2023-10-20T00:31:01.225Z,966.44
2023-10-20T00:31:11.533Z,966.43
2023-10-20T00:31:21.825Z,966.43
2023-10-20T00:31:32.098Z,966.43
2023-10-20T00:31:42.361Z,966.42
2023-10-20T00:31:52.665Z,966.42
2023-10-20T00:32:02.947Z,966.42
2023-10-20T00:32:13.203Z,966.41
2023-10-20T00:32:23.458Z,966.41
2023-10-20T00:32:33.749Z,966.40
2023-10-20T00:32:44.072Z,966.40
2023-10-20T00:32:54.355Z,966.38
2023-10-20T00:33:04.664Z,966.38
2023-10-20T00:33:14.926Z,966.37
2023-10-20T00:33:25.148Z,966.36
2023-10-20T00:33:35.404Z,966.36
2023-10-20T00:33:45.668Z,966.35
2023-10-20T00:33:55.899Z,966.35
2023-10-20T00:34:06.138Z,966.35
2023-10-20T00:34:16.405Z,966.34
2023-10-20T00:34:26.636Z,966.33
2023-10-20T00:34:36.880Z,966.33
2023-10-20T00:34:47.128Z,966.32
2023-10-20T00:34:57.401Z,966.32
2023-10-20T00:35:07.677Z,966.32
2023-10-20T00:35:17.932Z,966.31
2023-10-20T00:35:28.216Z,966.31
2023-10-20T00:35:38.499Z,966.31
2023-10-20T00:35:48.762Z,966.31
2023-10-20T00:35:58.999Z,966.30
2023-10-20T00:36:09.258Z,966.30
2023-10-20T00:36:19.517Z,966.30
2023-10-20T00:36:29.774Z,966.30
2023-10-20T00:36:40.027Z,966.30
2023-10-20T00:36:50.269Z,966.29
2023-10-20T00:37:00.519Z,966.28
2023-10-20T00:37:10.787Z,966.27
2023-10-20T00:37:21.099Z,966.27
2023-10-20T00:37:31.346Z,966.27
2023-10-20T00:37:41.595Z,966.26
2023-10-20T00:37:51.842Z,966.26
2023-10-20T00:38:02.126Z,966.25
2023-10-20T00:38:12.420Z,966.24
2023-10-20T00:38:22.665Z,966.24
2023-10-20T00:38:32.978Z,966.24
2023-10-20T00:38:43.219Z,966.24
2023-10-20T00:38:53.465Z,966.23
2023-10-20T00:39:03.777Z,966.22
2023-10-20T00:39:14.086Z,966.22
2023-10-20T00:39:24.316Z,966.21
2023-10-20T00:39:34.563Z,966.19
2023-10-20T00:39:44.814Z,966.19
2023-10-20T00:39:55.055Z,966.18
2023-10-20T00:40:05.303Z,966.17
2023-10-20T00:40:15.579Z,966.15
2023-10-20T00:40:25.797Z,966.14
2023-10-20T00:40:36.051Z,966.12
2023-10-20T00:40:46.302Z,966.11
2023-10-20T00:40:56.593Z,966.10
2023-10-20T00:41:06.881Z,966.09
2023-10-20T00:41:17.334Z,966.07
2023-10-20T00:41:27.611Z,966.07
2023-10-20T00:41:37.844Z,966.05
2023-10-20T00:41:48.089Z,966.04
2023-10-20T00:41:58.340Z,966.03
2023-10-20T00:42:08.622Z,966.02
2023-10-20T00:42:18.866Z,966.01
2023-10-20T00:42:29.119Z,966.01
2023-10-20T00:42:39.422Z,966.00
2023-10-20T00:42:49.657Z,966.00
2023-10-20T00:42:59.937Z,966.00
2023-10-20T00:43:10.152Z,965.99
2023-10-20T00:43:20.414Z,965.99
2023-10-20T00:43:30.647Z,965.99
2023-10-20T00:43:40.900Z,965.99
2023-10-20T00:43:51.140Z,965.99
2023-10-20T00:44:01.468Z,965.98
2023-10-20T00:44:11.727Z,965.99
2023-10-20T00:44:22.038Z,965.99
2023-10-20T00:44:32.522Z,965.99
2023-10-20T00:44:42.732Z,966.00
2023-10-20T00:44:52.999Z,966.00
2023-10-20T00:45:03.255Z,966.00
2023-10-20T00:45:13.522Z,966.01
2023-10-20T00:45:23.756Z,966.02
2023-10-20T00:45:34.090Z,966.00
2023-10-20T00:45:44.521Z,966.01
2023-10-20T00:45:54.801Z,966.01
2023-10-20T00:46:05.114Z,966.00
2023-10-20T00:46:15.434Z,966.00
2023-10-20T00:46:25.652Z,966.00
2023-10-20T00:46:35.887Z,966.01
2023-10-20T00:46:46.148Z,966.00
2023-10-20T00:46:56.430Z,966.00
2023-10-20T00:47:06.695Z,965.99
2023-10-20T00:47:16.928Z,966.00
2023-10-20T00:47:27.303Z,965.99
2023-10-20T00:47:37.774Z,965.99
2023-10-20T00:47:48.103Z,965.98
2023-10-20T00:47:58.362Z,965.96
2023-10-20T00:48:08.631Z,965.96
2023-10-20T00:48:18.989Z,965.96
2023-10-20T00:48:29.319Z,965.95
2023-10-20T00:48:39.623Z,965.95
2023-10-20T00:48:49.873Z,965.95
2023-10-20T00:49:00.174Z,965.93
2023-10-20T00:49:10.455Z,965.95
2023-10-20T00:49:20.711Z,965.93
2023-10-20T00:49:30.958Z,965.92
2023-10-20T00:49:41.204Z,965.92
2023-10-20T00:49:51.455Z,965.92
2023-10-20T00:50:01.775Z,965.93
2023-10-20T00:50:12.073Z,965.93
2023-10-20T00:50:22.361Z,965.93
2023-10-20T00:50:32.707Z,965.92
2023-10-20T00:50:42.986Z,965.91
2023-10-20T00:50:53.202Z,965.92
2023-10-20T00:51:03.453Z,965.92
2023-10-20T00:51:13.700Z,965.92
2023-10-20T00:51:23.940Z,965.92
2023-10-20T00:51:34.194Z,965.93
2023-10-20T00:51:44.458Z,965.93
2023-10-20T00:51:54.682Z,965.92
2023-10-20T00:52:04.929Z,965.92
2023-10-20T00:52:15.179Z,965.93
2023-10-20T00:52:25.425Z,965.93
2023-10-20T00:52:35.679Z,965.92
2023-10-20T00:52:45.916Z,965.93
2023-10-20T00:52:56.186Z,965.92
2023-10-20T00:53:06.476Z,965.90
2023-10-20T00:53:16.688Z,965.91
2023-10-20T00:53:26.961Z,965.90
2023-10-20T00:53:37.250Z,965.90
2023-10-20T00:53:47.452Z,965.89
2023-10-20T00:53:57.705Z,965.88
2023-10-20T00:54:07.946Z,965.88
2023-10-20T00:54:18.193Z,965.88
2023-10-20T00:54:28.439Z,965.87
2023-10-20T00:54:38.699Z,965.87
2023-10-20T00:54:48.946Z,965.86
2023-10-20T00:54:59.205Z,965.86
2023-10-20T00:55:09.476Z,965.86
2023-10-20T00:55:19.710Z,965.85
2023-10-20T00:55:29.961Z,965.85
2023-10-20T00:55:40.203Z,965.84
2023-10-20T00:55:50.451Z,965.85
2023-10-20T00:56:00.730Z,965.83
2023-10-20T00:56:11.095Z,965.83
2023-10-20T00:56:21.358Z,965.84
2023-10-20T00:56:31.645Z,965.85
2023-10-20T00:56:41.870Z,965.85
2023-10-20T00:56:52.117Z,965.85
2023-10-20T00:57:02.395Z,965.85
2023-10-20T00:57:12.681Z,965.86
2023-10-20T00:57:22.926Z,965.87
2023-10-20T00:57:33.176Z,965.88
2023-10-20T00:57:43.420Z,965.89
2023-10-20T00:57:53.670Z,965.90
2023-10-20T00:58:03.915Z,965.90
2023-10-20T00:58:14.162Z,965.91
2023-10-20T00:58:24.410Z,965.90
2023-10-20T00:58:34.661Z,965.91
2023-10-20T00:58:44.908Z,965.91
2023-10-20T00:58:55.157Z,965.91
2023-10-20T00:59:05.478Z,965.92
2023-10-20T00:59:15.806Z,965.92
2023-10-20T00:59:26.102Z,965.92
2023-10-20T00:59:36.392Z,965.92
2023-10-20T00:59:46.606Z,965.92
2023-10-20T00:59:56.855Z,965.92
2023-10-20T01:00:07.103Z,965.93
2023-10-20T01:00:17.354Z,965.92
2023-10-20T01:00:27.600Z,965.92
2023-10-20T01:00:37.870Z,965.92
2023-10-20T01:00:48.095Z,965.92
2023-10-20T01:00:58.399Z,965.93
2023-10-20T01:01:08.671Z,965.93
2023-10-20T01:01:18.925Z,965.93
2023-10-20T01:01:29.184Z,965.93
2023-10-20T01:01:39.512Z,965.93
2023-10-20T01:01:49.778Z,965.93
2023-10-20T01:02:00.075Z,965.92
2023-10-20T01:02:10.497Z,965.92
2023-10-20T01:02:20.838Z,965.93
2023-10-20T01:02:31.229Z,965.92
2023-10-20T01:02:41.764Z,965.93
2023-10-20T01:02:51.969Z,965.92
2023-10-20T01:03:02.359Z,965.93
2023-10-20T01:03:12.881Z,965.92
2023-10-20T01:03:23.109Z,965.93
2023-10-20T01:03:33.486Z,965.92
2023-10-20T01:03:43.925Z,965.92
2023-10-20T01:03:54.329Z,965.92
2023-10-20T01:04:04.525Z,965.92
2023-10-20T01:04:14.877Z,965.93
2023-10-20T01:04:25.102Z,965.92
2023-10-20T01:04:35.378Z,965.92
2023-10-20T01:04:45.596Z,965.92
2023-10-20T01:04:55.841Z,965.93
2023-10-20T01:05:06.117Z,965.92
2023-10-20T01:05:16.505Z,965.92
2023-10-20T01:05:26.813Z,965.92
2023-10-20T01:05:37.118Z,965.92
2023-10-20T01:05:47.357Z,965.92
2023-10-20T01:05:57.605Z,965.92
2023-10-20T01:06:07.868Z,965.93
2023-10-20T01:06:18.101Z,965.93
2023-10-20T01:06:28.351Z,965.92
2023-10-20T01:06:38.617Z,965.92
2023-10-20T01:06:48.877Z,965.92
2023-10-20T01:06:59.120Z,965.91
2023-10-20T01:07:09.371Z,965.91
2023-10-20T01:07:19.612Z,965.91
2023-10-20T01:07:29.860Z,965.91
2023-10-20T01:07:40.111Z,965.90
2023-10-20T01:07:50.353Z,965.90
2023-10-20T01:08:00.639Z,965.91
2023-10-20T01:08:10.922Z,965.90
2023-10-20T01:08:21.141Z,965.90
2023-10-20T01:08:31.445Z,965.91
2023-10-20T01:08:41.723Z,965.91
2023-10-20T01:08:52.022Z,965.92
2023-10-20T01:09:02.306Z,965.92
2023-10-20T01:09:12.596Z,965.92
2023-10-20T01:09:22.874Z,965.92
2023-10-20T01:09:33.102Z,965.93
2023-10-20T01:09:43.350Z,965.93
2023-10-20T01:09:53.601Z,965.93
2023-10-20T01:10:03.850Z,965.94
2023-10-20T01:10:14.097Z,965.94
2023-10-20T01:10:24.344Z,965.95
2023-10-20T01:10:34.737Z,965.96
2023-10-20T01:10:44.986Z,965.96
2023-10-20T01:10:55.233Z,965.97
2023-10-20T01:11:05.506Z,965.96
2023-10-20T01:11:15.784Z,965.97
2023-10-20T01:11:26.081Z,965.97
2023-10-20T01:11:36.535Z,965.96
2023-10-20T01:11:46.785Z,965.97
2023-10-20T01:11:57.033Z,965.97
2023-10-20T01:12:07.281Z,965.96
2023-10-20T01:12:17.524Z,965.96
2023-10-20T01:12:27.774Z,965.96
2023-10-20T01:12:38.021Z,965.96
2023-10-20T01:12:48.267Z,965.96
2023-10-20T01:12:58.516Z,965.96
2023-10-20T01:13:08.780Z,965.97
2023-10-20T01:13:19.040Z,965.97
2023-10-20T01:13:29.309Z,965.96
2023-10-20T01:13:39.553Z,965.96
2023-10-20T01:13:49.806Z,965.97
2023-10-20T01:14:00.106Z,965.97
2023-10-20T01:14:10.547Z,965.96
2023-10-20T01:14:20.828Z,965.96
2023-10-20T01:14:31.335Z,965.95
2023-10-20T01:14:41.370Z,965.95
2023-10-20T01:14:51.632Z,965.94
2023-10-20T01:15:01.875Z,965.94
2023-10-20T01:15:12.119Z,965.93
2023-10-20T01:15:22.403Z,965.93
2023-10-20T01:15:32.665Z,965.93
2023-10-20T01:15:42.923Z,965.93
2023-10-20T01:15:53.183Z,965.93
2023-10-20T01:16:03.429Z,965.92
2023-10-20T01:16:13.684Z,965.92
2023-10-20T01:16:23.916Z,965.91
2023-10-20T01:16:34.245Z,965.91
2023-10-20T01:16:44.490Z,965.90
2023-10-20T01:16:54.740Z,965.90
2023-10-20T01:17:05.000Z,965.91
2023-10-20T01:17:15.248Z,965.90
2023-10-20T01:17:25.500Z,965.89
2023-10-20T01:17:35.786Z,965.89
2023-10-20T01:17:46.056Z,965.89
2023-10-20T01:17:56.384Z,965.89
2023-10-20T01:18:06.625Z,965.89
2023-10-20T01:18:16.899Z,965.88
2023-10-20T01:18:27.133Z,965.89
2023-10-20T01:18:37.376Z,965.89
2023-10-20T01:18:47.622Z,965.89
2023-10-20T01:18:57.894Z,965.89
2023-10-20T01:19:08.114Z,965.88
2023-10-20T01:19:18.365Z,965.88
2023-10-20T01:19:28.624Z,965.88
2023-10-20T01:19:38.874Z,965.87
2023-10-20T01:19:49.106Z,965.87
2023-10-20T01:19:59.371Z,965.87
2023-10-20T01:20:09.691Z,965.86
2023-10-20T01:20:19.969Z,965.87
2023-10-20T01:20:30.285Z,965.86
2023-10-20T01:20:40.668Z,965.86
2023-10-20T01:20:50.914Z,965.86
2023-10-20T01:21:01.176Z,965.86
2023-10-20T01:21:11.426Z,965.87
2023-10-20T01:21:21.676Z,965.86
2023-10-20T01:21:31.928Z,965.87
2023-10-20T01:21:42.177Z,965.87
2023-10-20T01:21:52.432Z,965.86
2023-10-20T01:22:02.675Z,965.87
2023-10-20T01:22:12.925Z,965.86
2023-10-20T01:22:23.173Z,965.86
2023-10-20T01:22:33.431Z,965.86
2023-10-20T01:22:43.690Z,965.85
2023-10-20T01:22:53.950Z,965.86
2023-10-20T01:23:04.231Z,965.86
2023-10-20T01:23:14.468Z,965.85
2023-10-20T01:23:24.717Z,965.84
2023-10-20T01:23:35.062Z,965.85
2023-10-20T01:23:45.270Z,965.85
2023-10-20T01:23:55.521Z,965.84
2023-10-20T01:24:05.761Z,965.84
2023-10-20T01:24:16.012Z,965.84
2023-10-20T01:24:26.256Z,965.83
2023-10-20T01:24:36.509Z,965.82
2023-10-20T01:24:46.751Z,965.82
2023-10-20T01:24:56.998Z,965.81
2023-10-20T01:25:07.243Z,965.81
2023-10-20T01:25:17.489Z,965.80
2023-10-20T01:25:27.736Z,965.80
2023-10-20T01:25:37.985Z,965.80
2023-10-20T01:25:48.230Z,965.80
2023-10-20T01:25:58.536Z,965.79
2023-10-20T01:26:08.782Z,965.79
2023-10-20T01:26:19.073Z,965.78
2023-10-20T01:26:29.367Z,965.78
2023-10-20T01:26:39.659Z,965.78
2023-10-20T01:26:49.892Z,965.77
2023-10-20T01:27:00.135Z,965.77
2023-10-20T01:27:10.405Z,965.77
2023-10-20T01:27:20.649Z,965.77
2023-10-20T01:27:30.896Z,965.77
2023-10-20T01:27:41.158Z,965.77
2023-10-20T01:27:51.427Z,965.77
2023-10-20T01:28:01.664Z,965.77
2023-10-20T01:28:11.931Z,965.76
2023-10-20T01:28:22.158Z,965.77
2023-10-20T01:28:32.404Z,965.76
2023-10-20T01:28:42.652Z,965.76
2023-10-20T01:28:52.900Z,965.76
2023-10-20T01:29:03.178Z,965.77
2023-10-20T01:29:13.651Z,965.77
2023-10-20T01:29:23.701Z,965.77
2023-10-20T01:29:33.977Z,965.77
2023-10-20T01:29:44.199Z,965.76
2023-10-20T01:29:54.441Z,965.76
2023-10-20T01:30:04.692Z,965.76
2023-10-20T01:30:14.943Z,965.76
2023-10-20T01:30:25.186Z,965.74
2023-10-20T01:30:35.431Z,965.73
2023-10-20T01:30:45.681Z,965.73
2023-10-20T01:30:55.921Z,965.73
2023-10-20T01:31:06.171Z,965.72
2023-10-20T01:31:16.419Z,965.71
2023-10-20T01:31:26.669Z,965.71
2023-10-20T01:31:36.914Z,965.70
2023-10-20T01:31:47.173Z,965.70
2023-10-20T01:31:57.475Z,965.69
2023-10-20T01:32:07.722Z,965.68
2023-10-20T01:32:17.984Z,965.67
2023-10-20T01:32:28.222Z,965.66
2023-10-20T01:32:38.536Z,965.66
2023-10-20T01:32:48.862Z,965.65
2023-10-20T01:32:59.156Z,965.64
2023-10-20T01:33:09.451Z,965.64
2023-10-20T01:33:19.730Z,965.63
2023-10-20T01:33:30.059Z,965.62
2023-10-20T01:33:40.383Z,965.62
2023-10-20T01:33:50.646Z,965.61
2023-10-20T01:34:00.904Z,965.60
2023-10-20T01:34:11.241Z,965.59
2023-10-20T01:34:21.603Z,965.59
2023-10-20T01:34:32.168Z,965.58
2023-10-20T01:34:42.138Z,965.57
2023-10-20T01:34:52.386Z,965.56
2023-10-20T01:35:02.668Z,965.56
2023-10-20T01:35:12.934Z,965.55
2023-10-20T01:35:23.170Z,965.54
2023-10-20T01:35:33.466Z,965.54
2023-10-20T01:35:43.746Z,965.53
2023-10-20T01:35:53.977Z,965.52
2023-10-20T01:36:04.225Z,965.53
2023-10-20T01:36:14.467Z,965.52
2023-10-20T01:36:24.729Z,965.52
2023-10-20T01:36:34.975Z,965.51
2023-10-20T01:36:45.241Z,965.51
2023-10-20T01:36:55.495Z,965.51
2023-10-20T01:37:05.746Z,965.51
2023-10-20T01:37:15.992Z,965.51
2023-10-20T01:37:26.233Z,965.51
2023-10-20T01:37:36.483Z,965.50
2023-10-20T01:37:46.729Z,965.51
2023-10-20T01:37:56.983Z,965.51
2023-10-20T01:38:07.240Z,965.51
2023-10-20T01:38:17.564Z,965.51
2023-10-20T01:38:27.809Z,965.51
2023-10-20T01:38:38.092Z,965.51
2023-10-20T01:38:48.302Z,965.51
2023-10-20T01:38:58.551Z,965.51
2023-10-20T01:39:08.804Z,965.51
2023-10-20T01:39:19.050Z,965.51
2023-10-20T01:39:29.291Z,965.50
2023-10-20T01:39:39.541Z,965.51
2023-10-20T01:39:49.797Z,965.51
2023-10-20T01:40:00.037Z,965.50
2023-10-20T01:40:10.283Z,965.50
2023-10-20T01:40:20.535Z,965.50
2023-10-20T01:40:30.787Z,965.50
2023-10-20T01:40:41.028Z,965.50
2023-10-20T01:40:51.274Z,965.50
2023-10-20T01:41:01.560Z,965.50
2023-10-20T01:41:11.815Z,965.50
2023-10-20T01:41:22.053Z,965.49
2023-10-20T01:41:32.331Z,965.49
2023-10-20T01:41:42.550Z,965.49
2023-10-20T01:41:52.797Z,965.48
2023-10-20T01:42:03.047Z,965.48
2023-10-20T01:42:13.305Z,965.48
2023-10-20T01:42:23.545Z,965.47
2023-10-20T01:42:33.786Z,965.46
2023-10-20T01:42:44.033Z,965.46
2023-10-20T01:42:54.309Z,965.45
2023-10-20T01:43:04.546Z,965.45
2023-10-20T01:43:14.791Z,965.44
2023-10-20T01:43:25.042Z,965.44
2023-10-20T01:43:35.288Z,965.44
2023-10-20T01:43:45.542Z,965.44
2023-10-20T01:43:55.785Z,965.43
2023-10-20T01:44:06.089Z,965.43
2023-10-20T01:44:16.485Z,965.43
2023-10-20T01:44:26.768Z,965.43
2023-10-20T01:44:36.997Z,965.43
2023-10-20T01:44:47.232Z,965.43
2023-10-20T01:44:57.480Z,965.41
2023-10-20T01:45:07.729Z,965.41
2023-10-20T01:45:17.974Z,965.40
2023-10-20T01:45:28.397Z,965.40
2023-10-20T01:45:38.626Z,965.40
2023-10-20T01:45:48.888Z,965.40
2023-10-20T01:45:59.136Z,965.40
2023-10-20T01:46:09.397Z,965.40
2023-10-20T01:46:19.708Z,965.40
2023-10-20T01:46:30.072Z,965.39
2023-10-20T01:46:40.428Z,965.39
2023-10-20T01:46:50.966Z,965.39
2023-10-20T01:47:01.122Z,965.37
2023-10-20T01:47:11.559Z,965.37
2023-10-20T01:47:21.837Z,965.36
2023-10-20T01:47:32.233Z,965.36
2023-10-20T01:47:42.624Z,965.35
2023-10-20T01:47:52.955Z,965.34
2023-10-20T01:48:03.320Z,965.34
2023-10-20T01:48:13.701Z,965.32
2023-10-20T01:48:23.957Z,965.32
2023-10-20T01:48:34.218Z,965.30
2023-10-20T01:48:44.466Z,965.30
2023-10-20T01:48:54.710Z,965.29
2023-10-20T01:49:04.982Z,965.27
2023-10-20T01:49:15.208Z,965.27
2023-10-20T01:49:25.455Z,965.26
2023-10-20T01:49:35.704Z,965.25
2023-10-20T01:49:45.945Z,965.24
2023-10-20T01:49:56.196Z,965.24
2023-10-20T01:50:06.454Z,965.24
2023-10-20T01:50:16.801Z,965.23
2023-10-20T01:50:27.108Z,965.22
2023-10-20T01:50:37.391Z,965.22
2023-10-20T01:50:47.630Z,965.22
2023-10-20T01:50:57.900Z,965.22
2023-10-20T01:51:08.173Z,965.21
2023-10-20T01:51:18.410Z,965.21
2023-10-20T01:51:28.664Z,965.21
2023-10-20T01:51:38.928Z,965.20
2023-10-20T01:51:49.151Z,965.20
2023-10-20T01:51:59.406Z,965.19
2023-10-20T01:52:09.672Z,965.19
2023-10-20T01:52:19.894Z,965.18
2023-10-20T01:52:30.152Z,965.17
2023-10-20T01:52:40.521Z,965.17
2023-10-20T01:52:50.755Z,965.17
2023-10-20T01:53:01.050Z,965.17
2023-10-20T01:53:11.374Z,965.17
2023-10-20T01:53:21.657Z,965.17
2023-10-20T01:53:31.905Z,965.17
2023-10-20T01:53:42.153Z,965.16
2023-10-20T01:53:52.471Z,965.16
2023-10-20T01:54:02.728Z,965.16
2023-10-20T01:54:12.969Z,965.16
2023-10-20T01:54:23.217Z,965.15
2023-10-20T01:54:33.587Z,965.14
2023-10-20T01:54:43.921Z,965.13
2023-10-20T01:54:54.181Z,965.13
2023-10-20T01:55:04.486Z,965.13
2023-10-20T01:55:14.750Z,965.12
2023-10-20T01:55:25.028Z,965.12
2023-10-20T01:55:35.362Z,965.11
2023-10-20T01:55:45.599Z,965.10
2023-10-20T01:55:55.844Z,965.09
2023-10-20T01:56:06.130Z,965.09
2023-10-20T01:56:16.418Z,965.08
2023-10-20T01:56:26.758Z,965.08
2023-10-20T01:56:37.103Z,965.07
2023-10-20T01:56:47.315Z,965.07
2023-10-20T01:56:57.560Z,965.06
2023-10-20T01:57:07.806Z,965.05
2023-10-20T01:57:18.050Z,965.05
2023-10-20T01:57:28.297Z,965.05
2023-10-20T01:57:38.544Z,965.04
2023-10-20T01:57:48.793Z,965.04
2023-10-20T01:57:59.039Z,965.04
2023-10-20T01:58:09.284Z,965.04
2023-10-20T01:58:19.530Z,965.03
2023-10-20T01:58:29.801Z,965.03
2023-10-20T01:58:40.029Z,965.02
2023-10-20T01:58:50.270Z,965.02
2023-10-20T01:59:00.525Z,965.02
2023-10-20T01:59:10.837Z,965.01
2023-10-20T01:59:21.098Z,965.00
2023-10-20T01:59:31.404Z,965.00
2023-10-20T01:59:41.699Z,965.00
2023-10-20T01:59:51.959Z,964.99
2023-10-20T02:00:02.233Z,964.99
2023-10-20T02:00:12.479Z,964.98
2023-10-20T02:00:22.725Z,964.98
2023-10-20T02:00:32.976Z,964.97
2023-10-20T02:00:43.269Z,964.97
2023-10-20T02:00:53.628Z,964.96
2023-10-20T02:01:03.942Z,964.96
2023-10-20T02:01:14.221Z,964.96
2023-10-20T02:01:24.591Z,964.94
2023-10-20T02:01:34.856Z,964.94
2023-10-20T02:01:45.100Z,964.93
2023-10-20T02:01:55.389Z,964.92
2023-10-20T02:02:05.729Z,964.91
2023-10-20T02:02:16.064Z,964.91
2023-10-20T02:02:26.348Z,964.90
2023-10-20T02:02:36.715Z,964.90
2023-10-20T02:02:47.172Z,964.89
2023-10-20T02:02:57.606Z,964.89
2023-10-20T02:03:08.079Z,964.88
2023-10-20T02:03:18.440Z,964.88
2023-10-20T02:03:28.943Z,964.87
2023-10-20T02:03:39.355Z,964.86
2023-10-20T02:03:49.720Z,964.86
2023-10-20T02:04:00.003Z,964.85
2023-10-20T02:04:10.267Z,964.85
2023-10-20T02:04:20.521Z,964.85
2023-10-20T02:04:30.766Z,964.84
2023-10-20T02:04:41.038Z,964.84
2023-10-20T02:04:51.288Z,964.83
2023-10-20T02:05:01.559Z,964.83
2023-10-20T02:05:11.834Z,964.83
2023-10-20T02:05:22.133Z,964.82
2023-10-20T02:05:32.382Z,964.82
2023-10-20T02:05:42.590Z,964.82
2023-10-20T02:05:52.865Z,964.82
2023-10-20T02:06:03.102Z,964.81
2023-10-20T02:06:13.343Z,964.81
2023-10-20T02:06:23.592Z,964.80
2023-10-20T02:06:33.846Z,964.80
2023-10-20T02:06:44.085Z,964.79
2023-10-20T02:06:54.332Z,964.79
2023-10-20T02:07:04.604Z,964.78
2023-10-20T02:07:14.848Z,964.77
2023-10-20T02:07:25.071Z,964.76
2023-10-20T02:07:35.330Z,964.76
2023-10-20T02:07:45.565Z,964.75
2023-10-20T02:07:55.808Z,964.75
2023-10-20T02:08:06.089Z,964.74